createdAt,value
2023-05-17T00:03:06.104Z,6.2
2023-05-17T00:13:08.090Z,6.3
2023-05-17T00:23:09.963Z,6.3
2023-05-17T00:33:11.380Z,6.3
2023-05-17T00:43:12.636Z,6.1
2023-05-17T00:53:13.734Z,5.8
2023-05-17T01:03:15.767Z,5.6
2023-05-17T01:13:17.399Z,5.4
2023-05-17T01:23:19.419Z,5.6
2023-05-17T01:43:22.750Z,6.1
2023-05-17T01:53:24.798Z,5.6
2023-05-17T02:03:26.184Z,5.6
2023-05-17T02:13:27.960Z,5.3
2023-05-17T02:23:29.767Z,5.5
2023-05-17T02:33:31.454Z,5.7
2023-05-17T02:43:32.795Z,5.7
2023-05-17T02:53:34.590Z,5.9
2023-05-17T03:03:36.434Z,5.7
2023-05-17T03:13:37.337Z,5.8
2023-05-17T03:23:38.422Z,5.9
2023-05-17T03:33:40.546Z,6.2
2023-05-17T03:43:42.152Z,6.5
2023-05-17T03:53:43.622Z,6.4
2023-05-17T04:03:45.320Z,6.4
2023-05-17T04:13:47.212Z,6.5
2023-05-17T04:33:50.370Z,6.5
2023-05-17T04:43:51.498Z,6.7
2023-05-17T04:53:52.625Z,6.9
2023-05-17T05:03:54.723Z,7.2
2023-05-17T05:13:56.144Z,7.5
2023-05-17T05:23:57.572Z,8
2023-05-17T05:33:58.887Z,8.4
2023-05-17T05:44:00.172Z,9
2023-05-17T05:54:01.830Z,9.5
2023-05-17T06:14:05.020Z,9.9
2023-05-17T06:24:06.168Z,10.1
2023-05-17T06:34:07.980Z,10.3
2023-05-17T06:44:09.476Z,10.3
2023-05-17T06:54:10.621Z,10.8
2023-05-17T07:04:11.911Z,10.3
2023-05-17T07:24:14.950Z,11.1
2023-05-17T07:34:16.581Z,11
2023-05-17T07:44:17.757Z,10.5
2023-05-17T07:54:18.936Z,10.9
2023-05-17T08:04:20.358Z,10.4
2023-05-17T08:14:22.288Z,11.1
2023-05-17T08:24:23.890Z,12.1
2023-05-17T08:34:25.419Z,11.4
2023-05-17T08:44:26.943Z,10.8
2023-05-17T08:54:28.653Z,10.6
2023-05-17T09:04:30.070Z,12.1
2023-05-17T09:14:31.974Z,11.6
2023-05-17T09:24:33.921Z,11.3
2023-05-17T09:44:36.806Z,12.5
2023-05-17T10:24:42.572Z,12.6
2023-05-17T10:44:45.858Z,13.7
2023-05-17T11:04:48.845Z,13.2
2023-05-17T11:24:52.069Z,13.6
2023-05-17T11:34:53.228Z,13.5
2023-05-17T12:45:03.622Z,15.4
2023-05-17T19:26:49.609Z,10.3
2023-05-17T21:26:31.199Z,7.3
2023-05-17T21:36:32.624Z,7.4
2023-05-17T21:46:34.394Z,7.5
2023-05-17T21:56:35.848Z,7.5
2023-05-17T22:06:37.705Z,7.3
2023-05-17T22:16:39.276Z,7.1
2023-05-17T22:26:40.766Z,6.9
2023-05-17T22:46:43.450Z,6.3
2023-05-17T22:56:44.690Z,6.1
2023-05-17T23:06:46.124Z,6
2023-05-17T23:16:48.136Z,5.9
